Time;durP1;ratioP1;P1;durP2;ratioP2;P2;SDS_P1;SDS_P2;PMS_P1;PMS_P2;Temp;Humidity;BMP_temperature;BMP_pressure;BME280_temperature;BME280_humidity;BME280_pressure;Samples;Min_cycle;Max_cycle;Signal;HPM_P1;HPM_P2
2021/01/05 00:01:29;;;;;;;35.40;13.25;;;;;;;16.26;47.79;155392.91;1666760;85;21392;-72
2021/01/05 00:04:01;;;;;;;39.05;15.13;;;;;;;16.30;47.73;155406.11;1667582;85;21206;-72
2021/01/05 00:06:34;;;;;;;46.60;16.27;;;;;;;16.33;47.57;155412.69;1665822;85;21412;-72
2021/01/05 00:09:08;;;;;;;38.23;14.13;;;;;;;16.31;47.53;155407.45;1661787;85;21262;-71
2021/01/05 00:11:58;;;;;;;44.65;14.58;;;;;;;16.07;47.70;155344.16;1636667;87;21208;-71
2021/01/05 00:14:32;;;;;;;52.95;16.25;;;;;;;15.97;48.39;155317.78;1688626;84;21317;-72
2021/01/05 00:17:06;;;;;;;46.65;16.35;;;;;;;16.04;48.93;155336.25;1701580;84;21388;-72
2021/01/05 00:19:39;;;;;;;37.93;14.63;;;;;;;15.97;48.81;155317.78;1707940;82;21213;-72
2021/01/05 00:22:12;;;;;;;34.27;12.95;;;;;;;16.03;48.63;155332.31;1723935;82;21343;-72
2021/01/05 00:24:44;;;;;;;32.88;14.10;;;;;;;16.07;48.15;155344.16;1714165;83;21259;-71
2021/01/05 00:27:17;;;;;;;35.95;13.50;;;;;;;15.94;47.80;155308.56;1722513;82;21313;-72
2021/01/05 00:29:49;;;;;;;36.20;13.70;;;;;;;15.77;47.58;155265.11;1742257;82;21194;-73
2021/01/05 00:32:24;;;;;;;43.23;15.68;;;;;;;15.75;47.77;155259.83;1743182;82;21384;-73
2021/01/05 00:34:56;;;;;;;33.20;12.50;;;;;;;15.78;48.34;155267.75;1743327;82;21422;-72
2021/01/05 00:37:30;;;;;;;29.45;11.68;;;;;;;15.90;48.23;155299.36;1733259;82;21368;-72
2021/01/05 00:40:02;;;;;;;40.78;13.83;;;;;;;15.85;47.81;155286.22;1725133;82;21872;-72
2021/01/05 00:42:35;;;;;;;34.08;12.78;;;;;;;15.67;48.24;155238.78;1713633;84;21209;-73
2021/01/05 00:45:09;;;;;;;32.23;13.70;;;;;;;15.87;48.07;155291.44;1714190;84;21254;-74
2021/01/05 00:47:42;;;;;;;27.45;11.90;;;;;;;15.99;48.01;155323.06;1736159;82;21328;-74
2021/01/05 00:50:14;;;;;;;36.25;12.82;;;;;;;15.98;47.82;155319.12;1743339;82;21456;-73
2021/01/05 00:52:46;;;;;;;31.30;14.23;;;;;;;15.82;47.71;155278.31;1743583;82;21341;-73
2021/01/05 00:55:19;;;;;;;36.48;14.38;;;;;;;15.74;47.66;155255.91;1742149;82;21194;-73
2021/01/05 00:57:51;;;;;;;30.32;13.43;;;;;;;15.60;47.98;155219.03;1720350;82;21369;-73
2021/01/05 01:00:26;;;;;;;35.83;13.93;;;;;;;15.49;48.14;155190.06;1743709;82;21504;-73
2021/01/05 01:03:00;;;;;;;30.17;12.15;;;;;;;15.57;48.20;155212.45;1742942;82;21196;-73
2021/01/05 01:05:34;;;;;;;32.15;13.83;;;;;;;15.60;48.60;155220.36;1740575;82;21696;-74
2021/01/05 01:08:08;;;;;;;34.35;14.25;;;;;;;15.90;48.08;155299.36;1741425;82;21933;-73
2021/01/05 01:10:41;;;;;;;35.78;14.58;;;;;;;15.90;48.62;155298.06;1743072;82;21847;-73
2021/01/05 01:13:14;;;;;;;35.92;14.07;;;;;;;16.11;48.02;155354.67;1743518;82;21234;-72
2021/01/05 01:15:47;;;;;;;32.50;13.72;;;;;;;16.13;47.84;155359.95;1743272;82;21277;-74
2021/01/05 01:18:19;;;;;;;30.02;13.48;;;;;;;16.04;47.96;155334.91;1743487;82;21344;-72
2021/01/05 01:20:52;;;;;;;34.58;14.18;;;;;;;16.03;47.70;155332.31;1740752;82;21238;-72
2021/01/05 01:23:26;;;;;;;31.68;13.18;;;;;;;16.01;47.79;155327.03;1726602;82;21350;-73
2021/01/05 01:26:00;;;;;;;36.25;13.35;;;;;;;16.03;48.08;155333.61;1726494;83;21843;-73
2021/01/05 01:28:33;;;;;;;32.63;13.72;;;;;;;16.04;48.01;155334.91;1725251;83;21864;-73
2021/01/05 01:31:06;;;;;;;32.60;14.07;;;;;;;16.12;47.85;155356.02;1726307;83;21817;-73
2021/01/05 01:33:40;;;;;;;39.27;15.55;;;;;;;16.06;48.03;155340.19;1725906;83;21710;-72
2021/01/05 01:36:12;;;;;;;31.30;13.98;;;;;;;16.11;48.15;155353.38;1725912;82;21255;-74
2021/01/05 01:38:44;;;;;;;35.35;14.43;;;;;;;16.18;47.67;155371.80;1711970;83;21186;-72
2021/01/05 01:41:17;;;;;;;37.50;15.28;;;;;;;16.16;47.83;155367.88;1683002;84;21377;-72
2021/01/05 01:43:52;;;;;;;37.03;14.55;;;;;;;15.99;47.51;155323.06;1723837;83;21160;-72
2021/01/05 01:46:28;;;;;;;33.78;14.80;;;;;;;15.97;47.67;155316.48;1723596;83;21270;-73
2021/01/05 01:49:01;;;;;;;39.38;15.60;;;;;;;15.94;47.73;155309.91;1712866;83;21253;-73
2021/01/05 01:51:34;;;;;;;35.15;14.28;;;;;;;16.00;48.09;155325.69;1687599;84;21709;-73
2021/01/05 01:54:36;;;;;;;36.98;15.23;;;;;;;15.85;48.04;155284.88;1728844;83;21406;-72
2021/01/05 01:57:22;;;;;;;38.23;15.98;;;;;;;15.87;48.77;155291.44;1724294;83;21265;-72
2021/01/05 02:00:30;;;;;;;38.00;15.35;;;;;;;15.85;47.91;155286.22;1713345;83;21370;-73
2021/01/05 02:03:13;;;;;;;32.15;14.58;;;;;;;15.89;48.12;155296.72;1693375;84;21384;-72
2021/01/05 02:06:03;;;;;;;36.93;16.40;;;;;;;15.88;47.99;155294.08;1704774;83;21216;-73
2021/01/05 02:08:46;;;;;;;36.08;15.98;;;;;;;15.93;47.88;155305.94;1721805;83;21329;-73
2021/01/05 02:11:52;;;;;;;40.43;15.65;;;;;;;15.76;48.00;155261.19;1720008;82;21825;-73
2021/01/05 02:14:57;;;;;;;42.05;16.42;;;;;;;15.81;48.17;155274.31;1726343;83;21330;-72
2021/01/05 02:17:44;;;;;;;37.08;15.13;;;;;;;15.81;48.39;155274.31;1697452;84;21674;-73
2021/01/05 02:20:24;;;;;;;34.27;15.18;;;;;;;15.89;48.40;155296.72;1697669;84;21429;-73
2021/01/05 02:23:24;;;;;;;38.10;17.55;;;;;;;15.89;48.57;155295.42;1728455;82;22119;-72
2021/01/05 02:26:19;;;;;;;36.60;15.10;;;;;;;15.99;48.50;155323.06;1723291;82;21185;-73
2021/01/05 02:28:57;;;;;;;37.88;16.70;;;;;;;16.11;48.26;155354.67;1723503;82;21808;-72
2021/01/05 02:31:48;;;;;;;37.28;15.75;;;;;;;16.18;47.92;155373.14;1728849;82;21312;-73
2021/01/05 02:34:34;;;;;;;37.20;15.20;;;;;;;16.09;48.08;155348.09;1737543;82;21376;-73
2021/01/05 02:37:18;;;;;;;34.73;13.30;;;;;;;16.10;48.23;155352.03;1721679;83;21198;-73
2021/01/05 02:40:24;;;;;;;36.48;14.65;;;;;;;16.13;47.81;155358.66;1727702;82;21404;-73
2021/01/05 02:43:47;;;;;;;27.32;12.78;;;;;;;16.11;48.17;155353.38;1739581;79;21289;-73
2021/01/05 02:46:46;;;;;;;31.97;13.78;;;;;;;16.00;47.45;155325.69;1721428;81;21355;-72
2021/01/05 02:49:46;;;;;;;33.02;13.43;;;;;;;15.73;47.97;155253.27;1732884;80;21320;-73
2021/01/05 02:53:03;;;;;;;31.75;12.98;;;;;;;15.74;47.85;155255.91;1766711;80;21328;-74
2021/01/05 02:55:59;;;;;;;28.25;12.30;;;;;;;15.59;48.24;155216.37;1767501;80;21378;-75
2021/01/05 02:59:09;;;;;;;27.02;12.55;;;;;;;15.44;48.08;155178.22;1755450;80;21344;-74
2021/01/05 03:02:39;;;;;;;28.83;12.68;;;;;;;15.64;47.77;155229.56;1756018;80;21855;-75
2021/01/05 03:05:29;;;;;;;27.75;12.55;;;;;;;15.70;47.72;155246.69;1747528;80;21218;-73
2021/01/05 03:08:23;;;;;;;24.07;9.38;;;;;;;15.64;48.07;155229.56;1758459;80;21177;-73
2021/01/05 03:11:16;;;;;;;24.52;11.33;;;;;;;15.74;47.83;155257.19;1754239;80;22335;-72
2021/01/05 03:14:18;;;;;;;26.87;11.83;;;;;;;15.72;47.59;155250.63;1658949;86;21241;-74
2021/01/05 03:17:29;;;;;;;;;;;;;;;15.69;47.54;155244.06;1621460;87;21344;-73
2021/01/05 03:20:27;;;;;;;22.73;10.32;;;;;;;15.62;47.80;155224.30;1713580;82;20614;-73
2021/01/05 03:23:17;;;;;;;24.50;10.90;;;;;;;15.65;48.04;155232.22;1725225;82;21274;-73
2021/01/05 03:25:52;;;;;;;21.40;10.08;;;;;;;15.81;48.31;155274.31;1704318;82;21276;-74
2021/01/05 03:28:42;;;;;;;22.45;9.83;;;;;;;15.97;48.09;155316.48;1735479;82;21328;-74
2021/01/05 03:31:46;;;;;;;25.73;10.20;;;;;;;15.91;48.69;155300.70;1737072;82;21388;-74
2021/01/05 03:34:37;;;;;;;21.77;10.20;;;;;;;15.94;48.01;155309.91;1742471;82;22190;-73
2021/01/05 03:37:27;;;;;;;21.95;10.60;;;;;;;15.99;47.86;155321.77;1750826;82;21185;-73
2021/01/05 03:40:18;;;;;;;23.32;9.35;;;;;;;15.83;48.05;155279.59;1752957;80;21304;-73
2021/01/05 03:43:10;;;;;;;20.23;9.53;;;;;;;15.84;48.15;155283.58;1692489;84;21277;-73
2021/01/05 03:45:53;;;;;;;24.57;11.43;;;;;;;16.03;47.95;155332.31;1594730;90;21191;-72
2021/01/05 03:48:44;;;;;;;23.70;10.10;;;;;;;16.02;47.60;155329.69;1731324;80;21316;-72
2021/01/05 03:51:35;;;;;;;21.03;9.73;;;;;;;15.94;48.08;155309.91;1760132;81;21725;-73
2021/01/05 03:54:25;;;;;;;22.13;9.93;;;;;;;15.98;48.16;155319.12;1773478;81;21952;-72
2021/01/05 03:57:15;;;;;;;21.50;8.85;;;;;;;15.98;48.22;155319.12;1773407;81;21772;-73
2021/01/05 04:00:10;;;;;;;19.48;8.70;;;;;;;15.98;48.83;155320.41;1760025;81;21372;-73
2021/01/05 04:02:44;;;;;;;22.13;9.93;;;;;;;16.02;48.96;155329.69;1743738;82;21984;-72
2021/01/05 04:05:17;;;;;;;20.82;10.58;;;;;;;16.04;48.93;155334.91;1741410;82;21316;-72
2021/01/05 04:07:49;;;;;;;16.65;8.45;;;;;;;15.98;48.39;155320.41;1749049;81;21185;-72
2021/01/05 04:10:21;;;;;;;21.02;9.20;;;;;;;15.94;48.63;155309.91;1747474;82;21238;-73
2021/01/05 04:12:54;;;;;;;17.20;8.40;;;;;;;16.09;48.59;155348.09;1747674;82;21384;-72
2021/01/05 04:15:29;;;;;;;16.25;7.58;;;;;;;16.02;48.71;155330.97;1747501;82;21238;-72
2021/01/05 04:18:01;;;;;;;20.52;8.13;;;;;;;16.10;48.43;155350.73;1747788;81;21178;-73
2021/01/05 04:20:33;;;;;;;15.32;7.87;;;;;;;16.15;48.61;155365.22;1746854;82;21320;-72
2021/01/05 04:23:06;;;;;;;16.73;8.25;;;;;;;16.14;49.50;155362.59;1750109;81;21850;-72
2021/01/05 04:25:38;;;;;;;19.80;9.55;;;;;;;16.06;48.87;155340.19;1773573;81;21213;-72
2021/01/05 04:28:10;;;;;;;17.67;7.87;;;;;;;16.17;49.21;155369.16;1771852;81;21160;-72
2021/01/05 04:30:43;;;;;;;16.05;8.13;;;;;;;16.23;47.86;155386.28;1770766;81;21224;-72
2021/01/05 04:33:15;;;;;;;18.20;8.65;;;;;;;16.09;47.84;155348.09;1770662;81;21413;-70
2021/01/05 04:35:48;;;;;;;16.48;8.10;;;;;;;15.94;47.88;155308.56;1750061;81;21187;-72
2021/01/05 04:38:20;;;;;;;17.57;7.78;;;;;;;15.74;48.04;155255.91;1752658;81;21361;-73
2021/01/05 04:40:53;;;;;;;17.07;8.75;;;;;;;15.70;48.39;155245.34;1770208;81;21195;-72
2021/01/05 04:43:39;;;;;;;18.15;8.73;;;;;;;15.74;48.54;155257.19;1756995;80;21197;-73
2021/01/05 04:46:22;;;;;;;15.68;8.75;;;;;;;15.82;48.87;155278.31;1753158;81;21196;-72
2021/01/05 04:49:22;;;;;;;19.60;9.50;;;;;;;15.71;50.33;155249.33;1750942;81;21293;-72
2021/01/05 04:52:09;;;;;;;18.23;8.70;;;;;;;15.76;49.77;155262.47;1717664;82;21256;-72
2021/01/05 04:55:07;;;;;;;17.10;8.40;;;;;;;15.76;49.22;155262.47;1756948;81;22493;-73
2021/01/05 04:57:40;;;;;;;18.90;7.87;;;;;;;15.72;49.06;155251.97;1687711;81;21178;-72
2021/01/05 05:00:25;;;;;;;20.27;9.55;;;;;;;15.66;48.76;155236.14;1713257;81;21364;-74
2021/01/05 05:03:29;;;;;;;21.57;9.63;;;;;;;15.69;48.91;155242.72;1753697;81;21206;-74
2021/01/05 05:06:38;;;;;;;18.02;9.20;;;;;;;15.57;48.62;155211.11;1749520;81;21326;-73
2021/01/05 05:09:47;;;;;;;19.70;8.75;;;;;;;15.65;48.68;155233.50;1737405;81;21861;-73
2021/01/05 05:12:46;;;;;;;17.40;8.70;;;;;;;15.58;48.87;155213.75;1745674;80;21833;-72
2021/01/05 05:15:32;;;;;;;18.87;9.53;;;;;;;15.57;48.81;155211.11;1701846;83;21248;-72
2021/01/05 05:18:45;;;;;;;21.77;8.80;;;;;;;15.60;49.61;155219.03;1666593;85;21380;-69
2021/01/05 05:21:39;;;;;;;18.35;9.05;;;;;;;15.66;49.56;155234.84;1756939;80;21203;-74
2021/01/05 05:24:28;;;;;;;19.50;9.05;;;;;;;15.75;49.57;155259.83;1758564;81;21230;-74
2021/01/05 05:27:29;;;;;;;19.00;9.35;;;;;;;15.72;49.51;155250.63;1759687;81;21821;-71
2021/01/05 05:30:07;;;;;;;19.05;9.50;;;;;;;15.61;49.08;155221.66;1760468;81;21345;-72
2021/01/05 05:32:47;;;;;;;20.85;10.23;;;;;;;15.62;48.83;155224.30;1748724;81;21708;-72
2021/01/05 05:36:05;;;;;;;22.15;9.28;;;;;;;15.69;48.80;155244.06;1749794;81;21399;-72
2021/01/05 05:39:33;;;;;;;19.92;9.40;;;;;;;15.72;48.90;155251.97;1757266;81;21202;-73
2021/01/05 05:42:22;;;;;;;18.98;8.50;;;;;;;15.72;49.20;155251.97;1760352;81;21353;-72
2021/01/05 05:45:05;;;;;;;20.25;9.48;;;;;;;15.87;48.78;155291.44;1756141;80;21255;-75
2021/01/05 05:47:48;;;;;;;19.50;8.48;;;;;;;15.88;48.33;155292.78;1780874;80;21190;-71
2021/01/05 05:50:27;;;;;;;16.00;7.95;;;;;;;15.77;48.20;155265.11;1779489;80;21351;-71
2021/01/05 05:53:11;;;;;;;21.35;10.40;;;;;;;15.66;48.27;155234.84;1773682;80;21228;-72
2021/01/05 05:56:03;;;;;;;19.17;9.28;;;;;;;15.60;48.63;155220.36;1756594;80;21166;-72
2021/01/05 05:58:43;;;;;;;18.80;9.30;;;;;;;15.51;48.55;155195.33;1779947;80;21175;-71
2021/01/05 06:01:18;;;;;;;17.92;8.63;;;;;;;15.55;48.54;155207.17;1779220;80;21199;-71
2021/01/05 06:03:50;;;;;;;21.48;10.05;;;;;;;15.70;48.38;155245.34;1782471;80;21425;-72
2021/01/05 06:06:24;;;;;;;24.50;11.00;;;;;;;15.71;48.31;155249.33;1780646;80;21187;-72
2021/01/05 06:08:56;;;;;;;18.48;9.78;;;;;;;15.72;48.38;155251.97;1726714;81;21870;-71
2021/01/05 06:11:33;;;;;;;18.75;9.63;;;;;;;15.79;48.38;155270.39;1743390;82;21384;-72
2021/01/05 06:14:04;;;;;;;18.60;8.45;;;;;;;15.84;48.14;155283.58;1743529;82;21202;-71
2021/01/05 06:16:37;;;;;;;21.23;9.33;;;;;;;15.82;48.02;155278.31;1762955;80;21314;-71
2021/01/05 06:19:09;;;;;;;19.23;9.28;;;;;;;15.82;48.18;155276.95;1768016;80;21376;-72
2021/01/05 06:21:41;;;;;;;21.93;10.30;;;;;;;15.88;48.36;155292.78;1717442;82;21284;-72
2021/01/05 06:24:14;;;;;;;24.07;9.83;;;;;;;15.97;48.16;155317.78;1719114;82;21300;-71
2021/01/05 06:26:46;;;;;;;21.50;9.60;;;;;;;16.04;48.14;155336.25;1745963;82;21214;-71
2021/01/05 06:29:18;;;;;;;20.30;9.65;;;;;;;16.08;47.96;155346.81;1741041;82;21241;-71
2021/01/05 06:31:50;;;;;;;21.85;10.95;;;;;;;16.10;47.80;155352.03;1745849;82;21699;-71
2021/01/05 06:34:23;;;;;;;18.87;9.33;;;;;;;16.01;47.74;155328.33;1745947;82;21244;-71
2021/01/05 06:36:55;;;;;;;21.95;9.28;;;;;;;15.96;47.73;155315.19;1745992;82;21227;-71
2021/01/05 06:39:28;;;;;;;20.75;9.80;;;;;;;15.93;47.71;155307.27;1745584;82;21266;-71
2021/01/05 06:42:00;;;;;;;23.42;10.10;;;;;;;15.89;47.76;155296.72;1745751;82;21706;-71
2021/01/05 06:44:32;;;;;;;17.42;8.43;;;;;;;16.15;47.42;155365.22;1745803;82;21742;-71
2021/01/05 06:47:05;;;;;;;20.40;10.85;;;;;;;15.97;47.52;155316.48;1745079;82;21206;-71
2021/01/05 06:49:39;;;;;;;19.73;9.65;;;;;;;16.10;47.54;155352.03;1744949;82;21234;-74
2021/01/05 06:52:11;;;;;;;21.12;10.95;;;;;;;16.09;47.34;155349.39;1745778;82;21194;-71
2021/01/05 06:54:44;;;;;;;16.42;8.80;;;;;;;16.12;47.36;155357.31;1718479;82;21790;-71
2021/01/05 06:57:16;;;;;;;23.98;12.25;;;;;;;16.16;47.38;155366.52;1716108;83;22554;-72
2021/01/05 06:59:50;;;;;;;19.75;9.70;;;;;;;16.22;47.21;155383.66;1716353;82;21318;-71
2021/01/05 07:02:22;;;;;;;21.50;10.43;;;;;;;16.18;47.18;155373.14;1733460;82;21171;-72
2021/01/05 07:04:55;;;;;;;22.42;10.08;;;;;;;16.08;47.38;155345.45;1727444;82;21305;-72
2021/01/05 07:07:27;;;;;;;18.60;9.53;;;;;;;15.94;47.50;155309.91;1738466;82;21756;-72
2021/01/05 07:09:59;;;;;;;20.88;10.43;;;;;;;16.03;47.39;155333.61;1728593;82;21348;-73
2021/01/05 07:12:32;;;;;;;22.05;9.90;;;;;;;16.11;47.38;155354.67;1721543;82;21373;-72
2021/01/05 07:15:07;;;;;;;18.85;9.63;;;;;;;16.28;47.15;155399.48;1708418;82;21884;-72
2021/01/05 07:17:39;;;;;;;23.85;10.58;;;;;;;16.31;47.11;155407.45;1699740;83;21242;-72
2021/01/05 07:20:13;;;;;;;21.23;10.00;;;;;;;16.23;47.02;155386.28;1736275;82;21332;-72
2021/01/05 07:22:45;;;;;;;23.92;10.70;;;;;;;16.23;47.17;155385.00;1737208;82;21185;-72
2021/01/05 07:25:18;;;;;;;24.02;11.00;;;;;;;16.16;47.26;155367.88;1720806;82;22069;-73
2021/01/05 07:27:51;;;;;;;21.25;10.85;;;;;;;16.21;47.09;155381.02;1763535;80;21260;-72
2021/01/05 07:30:24;;;;;;;23.77;11.48;;;;;;;16.24;47.15;155387.62;1747695;80;21233;-72
2021/01/05 07:32:56;;;;;;;26.97;12.40;;;;;;;16.06;47.42;155341.53;1746286;80;21299;-72
2021/01/05 07:35:28;;;;;;;21.68;10.23;;;;;;;16.10;47.38;155350.73;1760339;80;21264;-72
2021/01/05 07:38:01;;;;;;;26.82;11.55;;;;;;;16.24;47.38;155387.62;1761802;80;21198;-72
2021/01/05 07:40:33;;;;;;;23.18;11.48;;;;;;;16.24;47.34;155388.94;1756383;80;21213;-73
2021/01/05 07:43:05;;;;;;;25.70;11.18;;;;;;;16.31;47.32;155407.45;1769166;80;21371;-72
2021/01/05 07:45:37;;;;;;;23.15;11.68;;;;;;;16.28;47.34;155399.48;1759465;80;21423;-72
2021/01/05 07:48:10;;;;;;;27.32;11.63;;;;;;;16.27;47.28;155398.14;1744723;80;21389;-72
2021/01/05 07:50:42;;;;;;;22.52;11.30;;;;;;;16.09;47.40;155349.39;1736727;81;21316;-72
2021/01/05 07:53:15;;;;;;;22.17;10.93;;;;;;;16.25;47.39;155390.28;1733210;82;21206;-72
2021/01/05 07:55:49;;;;;;;22.93;10.58;;;;;;;16.30;47.46;155404.81;1739549;80;21355;-71
2021/01/05 07:58:25;;;;;;;29.23;13.43;;;;;;;16.37;47.48;155424.59;1768885;81;21305;-71
2021/01/05 08:01:14;;;;;;;26.80;12.25;;;;;;;16.39;47.28;155428.52;1764634;80;21368;-72
2021/01/05 08:04:15;;;;;;;23.38;10.88;;;;;;;16.41;47.32;155435.09;1735912;80;21671;-72
2021/01/05 08:06:47;;;;;;;24.77;11.45;;;;;;;16.44;47.19;155441.67;1746953;81;21254;-72
2021/01/05 08:09:20;;;;;;;23.83;11.45;;;;;;;16.46;47.17;155448.30;1709122;82;21802;-72
2021/01/05 08:11:52;;;;;;;25.00;12.18;;;;;;;16.48;47.22;155452.23;1759181;80;21203;-73
2021/01/05 08:14:24;;;;;;;25.25;11.33;;;;;;;16.64;47.04;155495.72;1756234;80;21344;-72
2021/01/05 08:16:58;;;;;;;21.85;11.50;;;;;;;16.67;46.85;155502.28;1760494;80;21218;-72
2021/01/05 08:19:30;;;;;;;21.85;11.25;;;;;;;16.65;46.71;155498.34;1768431;81;21333;-73
2021/01/05 08:22:02;;;;;;;21.80;11.70;;;;;;;16.65;46.70;155497.06;1767079;81;21898;-73
2021/01/05 08:24:38;;;;;;;23.90;11.65;;;;;;;16.70;46.76;155510.22;1762235;81;22406;-76
2021/01/05 08:27:12;;;;;;;24.50;10.78;;;;;;;16.71;46.86;155512.84;1771523;81;21407;-74
2021/01/05 08:29:47;;;;;;;23.02;11.10;;;;;;;16.72;46.35;155516.78;1770332;81;21712;-76
2021/01/05 08:32:20;;;;;;;19.25;10.13;;;;;;;16.73;46.43;155518.13;1766530;80;21206;-78
2021/01/05 08:34:52;;;;;;;23.57;11.05;;;;;;;16.74;46.49;155520.77;1767886;81;21336;-75
2021/01/05 08:37:25;;;;;;;21.20;10.25;;;;;;;16.76;46.59;155526.06;1767398;81;21308;-75
2021/01/05 08:39:58;;;;;;;21.55;10.58;;;;;;;16.79;46.47;155533.92;1770461;81;21163;-70
2021/01/05 08:42:30;;;;;;;22.77;11.70;;;;;;;16.79;46.56;155533.92;1770242;81;21171;-70
2021/01/05 08:45:04;;;;;;;24.60;11.53;;;;;;;16.85;46.60;155551.06;1770997;81;21388;-77
2021/01/05 08:47:37;;;;;;;20.52;10.95;;;;;;;16.83;46.47;155544.48;1770390;80;21232;-75
2021/01/05 08:50:13;;;;;;;23.38;12.13;;;;;;;16.88;46.30;155558.98;1746692;80;21774;-78
2021/01/05 08:52:46;;;;;;;21.45;10.35;;;;;;;16.78;46.39;155531.33;1745971;82;21470;-76
2021/01/05 08:55:19;;;;;;;20.27;11.03;;;;;;;16.70;46.56;155511.56;1745910;80;21399;-77
2021/01/05 08:57:51;;;;;;;17.85;9.75;;;;;;;16.83;46.45;155545.83;1745709;82;21213;-77
2021/01/05 09:00:24;;;;;;;19.73;9.93;;;;;;;16.80;46.50;155536.56;1746386;80;21391;-74
2021/01/05 09:02:56;;;;;;;17.12;9.53;;;;;;;16.88;46.39;155558.98;1746045;82;21627;-72
2021/01/05 09:05:30;;;;;;;18.00;9.50;;;;;;;16.93;46.45;155572.19;1745527;80;21280;-72
2021/01/05 09:08:05;;;;;;;19.10;9.08;;;;;;;16.99;46.27;155586.69;1748313;80;21278;-70
2021/01/05 09:10:39;;;;;;;17.77;9.35;;;;;;;16.93;46.26;155570.84;1757093;80;21231;-76
2021/01/05 09:13:12;;;;;;;16.87;8.85;;;;;;;16.89;46.34;155561.63;1760538;80;21792;-73
2021/01/05 09:15:45;;;;;;;15.60;8.55;;;;;;;16.91;46.22;155565.56;1750142;80;21364;-78
2021/01/05 09:18:18;;;;;;;17.23;8.53;;;;;;;16.81;46.22;155540.55;1754835;80;21300;-74
2021/01/05 09:20:53;;;;;;;17.35;9.00;;;;;;;16.70;46.53;155510.22;1751777;80;21395;-82
2021/01/05 09:23:25;;;;;;;18.07;7.97;;;;;;;16.78;46.57;155531.33;1745358;80;21376;-73
2021/01/05 09:25:58;;;;;;;15.23;8.33;;;;;;;16.77;46.50;155528.69;1745491;82;21385;-72
2021/01/05 09:28:31;;;;;;;17.82;9.00;;;;;;;16.75;46.63;155523.41;1743507;82;21229;-73
2021/01/05 09:31:06;;;;;;;16.17;8.08;;;;;;;16.82;46.59;155541.84;1743663;82;21911;-72
2021/01/05 09:33:40;;;;;;;17.85;8.63;;;;;;;16.81;46.70;155539.20;1722698;82;21320;-73
2021/01/05 09:36:13;;;;;;;17.02;7.42;;;;;;;16.68;46.73;155504.92;1743959;81;21213;-77
2021/01/05 09:38:46;;;;;;;16.67;8.50;;;;;;;16.82;46.84;155541.84;1741752;80;21332;-77
2021/01/05 09:41:27;;;;;;;16.12;7.40;;;;;;;16.89;46.80;155560.33;1724173;81;21254;-80
2021/01/05 09:44:00;;;;;;;19.00;9.20;;;;;;;16.84;46.94;155547.12;1732398;80;21693;-81
2021/01/05 09:46:32;;;;;;;18.52;8.08;;;;;;;16.72;47.07;155515.48;1748819;80;21420;-75
2021/01/05 09:49:11;;;;;;;18.17;8.65;;;;;;;16.69;47.32;155507.56;1751071;80;22021;-77
2021/01/05 09:51:44;;;;;;;17.62;8.68;;;;;;;16.65;47.40;155498.34;1749753;80;21210;-75
2021/01/05 09:54:18;;;;;;;16.57;8.15;;;;;;;16.64;47.61;155495.72;1747485;80;21174;-78
2021/01/05 09:56:53;;;;;;;20.55;9.65;;;;;;;16.70;47.31;155511.56;1745997;80;21210;-76
2021/01/05 09:59:27;;;;;;;20.92;8.78;;;;;;;16.51;47.48;155460.16;1745994;80;21276;-76
2021/01/05 10:02:04;;;;;;;21.23;10.50;;;;;;;16.65;47.25;155497.06;1754692;80;21154;-76
2021/01/05 10:04:39;;;;;;;19.40;9.10;;;;;;;16.43;47.91;155439.08;1748511;80;21221;-78
2021/01/05 10:07:12;;;;;;;23.52;10.48;;;;;;;16.42;47.73;155436.44;1742863;80;21205;-79
2021/01/05 10:09:46;;;;;;;19.95;9.40;;;;;;;16.54;47.64;155469.36;1742966;81;21249;-75
2021/01/05 10:12:19;;;;;;;23.47;10.60;;;;;;;16.65;47.84;155497.06;1746632;80;21763;-78
2021/01/05 10:14:53;;;;;;;23.25;11.48;;;;;;;16.74;47.34;155520.77;1747881;80;21202;-78
2021/01/05 10:17:26;;;;;;;18.90;9.95;;;;;;;16.75;47.68;155524.70;1748696;80;21151;-77
2021/01/05 10:19:59;;;;;;;24.52;10.90;;;;;;;16.80;47.37;155536.56;1747864;80;21236;-79
2021/01/05 10:22:32;;;;;;;24.43;10.68;;;;;;;16.73;47.51;155519.42;1746169;80;21155;-77
2021/01/05 10:25:04;;;;;;;26.12;12.43;;;;;;;16.76;47.35;155527.34;1745996;80;21201;-76
2021/01/05 10:27:38;;;;;;;23.30;11.60;;;;;;;16.82;47.22;155543.19;1745324;80;21236;-78
2021/01/05 10:30:12;;;;;;;25.72;11.90;;;;;;;16.81;47.38;155539.20;1747144;80;21254;-78
2021/01/05 10:32:45;;;;;;;24.98;12.18;;;;;;;16.81;47.28;155540.55;1747582;80;21225;-81
2021/01/05 10:35:19;;;;;;;26.48;13.35;;;;;;;16.87;47.30;155556.34;1747127;80;21308;-83
2021/01/05 10:37:52;;;;;;;31.48;14.65;;;;;;;16.70;47.43;155510.22;1713497;82;22037;-89
2021/01/05 10:40:25;;;;;;;26.97;13.95;;;;;;;16.68;47.54;155504.92;1704436;84;21542;-82
2021/01/05 10:42:59;;;;;;;28.12;13.88;;;;;;;16.70;47.59;155511.56;1757024;80;21866;-82
2021/01/05 10:45:31;;;;;;;34.18;15.83;;;;;;;16.89;47.30;155560.33;1749028;80;21223;-81
2021/01/05 10:48:05;;;;;;;32.08;15.28;;;;;;;16.91;47.16;155566.91;1748561;80;21217;-83
2021/01/05 10:50:40;;;;;;;32.48;15.20;;;;;;;16.92;47.16;155569.55;1759985;79;21181;-88
2021/01/05 10:53:13;;;;;;;29.67;15.80;;;;;;;16.96;47.11;155580.06;1757226;79;21241;-83
2021/01/05 10:55:45;;;;;;;36.77;16.20;;;;;;;17.06;47.04;155606.47;1778307;79;21395;-82
2021/01/05 10:58:18;;;;;;;33.95;16.37;;;;;;;17.00;47.13;155589.33;1778501;79;21240;-81
2021/01/05 11:00:51;;;;;;;34.33;16.57;;;;;;;16.96;47.02;155580.06;1775914;79;21295;-83
2021/01/05 11:03:25;;;;;;;33.13;15.83;;;;;;;17.05;47.02;155602.48;1775351;79;21244;-78
2021/01/05 11:05:58;;;;;;;35.28;16.17;;;;;;;17.01;46.99;155591.97;1776589;79;21205;-78
2021/01/05 11:08:31;;;;;;;31.27;16.10;;;;;;;16.95;47.03;155576.13;1776537;79;21217;-80
2021/01/05 11:11:04;;;;;;;35.03;16.97;;;;;;;16.90;47.15;155564.27;1776318;79;21230;-79
2021/01/05 11:13:37;;;;;;;34.75;16.80;;;;;;;16.92;47.10;155568.20;1778067;79;21280;-80
2021/01/05 11:16:10;;;;;;;37.25;17.57;;;;;;;16.90;47.02;155562.92;1778597;79;21297;-81
2021/01/05 11:18:43;;;;;;;41.37;17.98;;;;;;;16.97;47.02;155581.41;1777482;79;21190;-82
2021/01/05 11:21:16;;;;;;;35.78;17.60;;;;;;;17.01;46.93;155591.97;1778517;79;21245;-78
2021/01/05 11:23:49;;;;;;;37.03;17.23;;;;;;;17.13;46.83;155623.61;1778160;79;21445;-80
2021/01/05 11:26:22;;;;;;;32.38;16.15;;;;;;;17.17;46.75;155634.13;1775220;79;21182;-86
2021/01/05 11:28:56;;;;;;;36.90;17.70;;;;;;;17.16;46.81;155631.48;1775435;80;21176;-86
2021/01/05 11:31:29;;;;;;;37.60;18.25;;;;;;;17.15;46.87;155630.19;1779186;79;21492;-79
2021/01/05 11:34:02;;;;;;;38.83;17.92;;;;;;;17.16;46.80;155632.83;1780629;79;21523;-84
2021/01/05 11:36:35;;;;;;;42.45;17.35;;;;;;;17.12;46.80;155622.27;1779887;79;21309;-83
2021/01/05 11:39:08;;;;;;;39.95;17.87;;;;;;;17.03;46.91;155597.20;1780448;79;21221;-83
2021/01/05 11:41:45;;;;;;;38.28;18.12;;;;;;;16.83;47.11;155544.48;1778510;79;21265;-81
2021/01/05 11:44:17;;;;;;;37.78;17.17;;;;;;;16.63;47.25;155491.78;1778368;79;21360;-78
2021/01/05 11:46:50;;;;;;;36.60;17.23;;;;;;;16.79;47.02;155533.92;1777635;79;21233;-82
2021/01/05 11:49:24;;;;;;;39.48;17.75;;;;;;;16.84;46.93;155548.42;1779947;79;21312;-82
2021/01/05 11:51:57;;;;;;;43.40;17.67;;;;;;;16.92;46.96;155568.20;1777332;79;21224;-79
2021/01/05 11:54:30;;;;;;;34.48;16.60;;;;;;;17.01;46.75;155591.97;1776702;79;21234;-81
2021/01/05 11:57:03;;;;;;;34.65;16.15;;;;;;;16.92;46.69;155568.20;1780484;79;21219;-85
2021/01/05 11:59:37;;;;;;;41.15;17.23;;;;;;;17.02;46.46;155594.56;1777115;79;21229;-82
2021/01/05 12:02:09;;;;;;;38.58;16.40;;;;;;;16.86;46.59;155553.70;1778345;79;21225;-85
2021/01/05 12:04:42;;;;;;;34.00;16.40;;;;;;;16.62;47.02;155490.44;1779517;80;21809;-81